createdAt,value
2023-08-10T00:01:41.199Z,100282.66
2023-08-10T00:04:10.074Z,100281.59
2023-08-10T00:06:40.734Z,100275.38
2023-08-10T00:09:10.012Z,100273.66
2023-08-10T00:11:38.341Z,100282.56
2023-08-10T00:14:06.951Z,100284.78
2023-08-10T00:16:35.526Z,100283.22
2023-08-10T00:19:05.042Z,100279.63
2023-08-10T00:21:33.364Z,100280.53
2023-08-10T00:24:04.490Z,100280.53
2023-08-10T00:26:33.750Z,100271.56
2023-08-10T00:29:02.104Z,100265.06
2023-08-10T00:31:30.652Z,100267.78
2023-08-10T00:33:58.932Z,100266.38
2023-08-10T00:36:27.284Z,100272.88
2023-08-10T00:38:55.643Z,100265.91
2023-08-10T00:41:25.771Z,100266.63
2023-08-10T00:43:55.372Z,100264.06
2023-08-10T00:46:23.972Z,100264.06
2023-08-10T00:48:53.576Z,100264.78
2023-08-10T00:51:22.232Z,100267.63
2023-08-10T00:53:51.031Z,100267.00
2023-08-10T00:56:19.943Z,100264.47
2023-08-10T00:58:49.943Z,100263.63
2023-08-10T01:01:18.567Z,100263.41
2023-08-10T01:03:47.095Z,100270.25
2023-08-10T01:06:23.666Z,100265.91
2023-08-10T01:09:00.621Z,100263.19
2023-08-10T01:11:36.312Z,100259.66
2023-08-10T01:14:15.323Z,100264.63
2023-08-10T01:16:45.105Z,100267.47
2023-08-10T01:19:25.503Z,100261.34
2023-08-10T01:22:04.441Z,100271.75
2023-08-10T01:24:40.892Z,100264.34
2023-08-10T01:27:14.241Z,100261.56
2023-08-10T01:29:43.868Z,100256.41
2023-08-10T01:32:15.925Z,100264.63
2023-08-10T01:34:44.383Z,100262.19
2023-08-10T01:37:12.735Z,100249.03
2023-08-10T01:39:41.283Z,100254.34
2023-08-10T01:42:09.632Z,100247.19
2023-08-10T01:44:39.564Z,100241.88
2023-08-10T01:47:17.823Z,100239.41
2023-08-10T01:49:50.512Z,100245.75
2023-08-10T01:52:22.482Z,100252.03
2023-08-10T01:54:51.285Z,100246.94
2023-08-10T01:57:20.031Z,100256.75
2023-08-10T01:59:50.092Z,100246.03
2023-08-10T02:02:18.535Z,100249.44
2023-08-10T02:04:46.891Z,100246.81
2023-08-10T02:07:15.356Z,100246.19
2023-08-10T02:09:44.760Z,100248.00
2023-08-10T02:12:13.113Z,100247.31
2023-08-10T02:14:41.443Z,100245.50
2023-08-10T02:17:11.425Z,100246.56
2023-08-10T02:19:39.796Z,100241.16
2023-08-10T02:22:08.240Z,100246.19
2023-08-10T02:24:36.642Z,100233.00
2023-08-10T02:27:06.022Z,100239.81
2023-08-10T02:29:35.137Z,100230.81
2023-08-10T02:32:03.916Z,100231.59
2023-08-10T02:34:33.975Z,100229.19
2023-08-10T02:37:02.386Z,100231.88
2023-08-10T02:39:30.842Z,100224.88
2023-08-10T02:41:59.945Z,100225.81
2023-08-10T02:44:28.396Z,100218.03
2023-08-10T02:46:56.852Z,100219.00
2023-08-10T02:49:25.327Z,100225.38
2023-08-10T02:51:55.035Z,100222.16
2023-08-10T02:54:23.765Z,100218.69
2023-08-10T02:56:52.102Z,100216.88
2023-08-10T02:59:20.453Z,100214.16
2023-08-10T03:01:48.773Z,100209.56
2023-08-10T03:04:17.732Z,100220.38
2023-08-10T03:06:46.213Z,100222.44
2023-08-10T03:09:16.303Z,100223.41
2023-08-10T03:11:44.810Z,100213.84
2023-08-10T03:14:13.131Z,100222.28
2023-08-10T03:16:41.717Z,100213.41
2023-08-10T03:19:10.073Z,100207.34
2023-08-10T03:21:38.541Z,100206.69
2023-08-10T03:24:07.582Z,100200.03
2023-08-10T03:26:38.042Z,100198.41
2023-08-10T03:29:07.271Z,100190.47
2023-08-10T03:31:36.199Z,100192.25
2023-08-10T03:34:04.766Z,100187.88
2023-08-10T03:36:33.381Z,100191.66
2023-08-10T03:39:02.041Z,100189.94
2023-08-10T03:41:30.346Z,100198.78
2023-08-10T03:44:00.192Z,100192.38
2023-08-10T03:46:28.649Z,100195.75
2023-08-10T03:48:57.048Z,100185.91
2023-08-10T03:51:26.364Z,100191.25
2023-08-10T03:53:54.741Z,100184.28
2023-08-10T03:56:23.280Z,100189.41
2023-08-10T03:58:51.733Z,100191.00
2023-08-10T04:01:23.621Z,100192.63
2023-08-10T04:03:52.283Z,100205.13
2023-08-10T04:06:22.461Z,100200.97
2023-08-10T04:08:51.135Z,100207.50
2023-08-10T04:11:19.500Z,100205.19
2023-08-10T04:13:48.504Z,100206.97
2023-08-10T04:16:18.102Z,100207.06
2023-08-10T04:18:47.963Z,100216.75
2023-08-10T04:21:16.951Z,100209.84
2023-08-10T04:23:45.364Z,100207.47
2023-08-10T04:26:13.763Z,100210.28
2023-08-10T04:28:42.694Z,100210.41
2023-08-10T04:31:11.099Z,100210.63
2023-08-10T04:33:39.702Z,100216.88
2023-08-10T04:36:09.671Z,100214.22
2023-08-10T04:38:38.182Z,100215.84
2023-08-10T04:41:06.511Z,100224.53
2023-08-10T04:43:34.962Z,100212.53
2023-08-10T04:46:03.548Z,100218.81
2023-08-10T04:48:31.990Z,100210.81
2023-08-10T04:51:00.333Z,100211.59
2023-08-10T04:53:30.255Z,100217.53
2023-08-10T04:55:58.843Z,100211.28
2023-08-10T04:58:27.280Z,100217.44
2023-08-10T05:00:55.691Z,100200.00
2023-08-10T05:03:24.277Z,100215.91
2023-08-10T05:05:53.241Z,100221.97
2023-08-10T05:08:23.441Z,100224.53
2023-08-10T05:10:53.631Z,100220.00
2023-08-10T05:13:22.145Z,100214.78
2023-08-10T05:15:51.042Z,100206.13
2023-08-10T05:18:21.561Z,100206.13
2023-08-10T05:20:50.444Z,100199.06
2023-08-10T05:23:18.798Z,100211.28
2023-08-10T05:25:47.721Z,100208.31
2023-08-10T05:28:17.611Z,100213.47
2023-08-10T05:30:46.132Z,100210.75
2023-08-10T05:33:14.963Z,100216.69
2023-08-10T05:35:43.426Z,100219.13
2023-08-10T05:38:11.793Z,100224.94
2023-08-10T05:40:40.134Z,100218.59
2023-08-10T05:43:08.565Z,100228.09
2023-08-10T05:45:38.418Z,100222.63
2023-08-10T05:48:12.272Z,100223.28
2023-08-10T05:50:40.996Z,100224.72
2023-08-10T05:53:09.390Z,100223.72
2023-08-10T05:55:37.795Z,100228.72
2023-08-10T05:58:06.502Z,100232.03
2023-08-10T06:00:35.031Z,100232.69
2023-08-10T06:03:07.844Z,100231.47
2023-08-10T06:05:37.456Z,100236.25
2023-08-10T06:08:09.764Z,100237.63
2023-08-10T06:10:38.261Z,100232.69
2023-08-10T06:13:06.684Z,100238.91
2023-08-10T06:15:35.211Z,100241.22
2023-08-10T06:18:05.484Z,100237.41
2023-08-10T06:20:34.868Z,100232.75
2023-08-10T06:23:03.291Z,100226.28
2023-08-10T06:25:32.371Z,100235.72
2023-08-10T06:28:01.072Z,100229.16
2023-08-10T06:30:29.390Z,100228.59
2023-08-10T06:32:57.853Z,100229.94
2023-08-10T06:35:28.550Z,100226.66
2023-08-10T06:37:56.968Z,100221.44
2023-08-10T06:40:28.441Z,100223.91
2023-08-10T06:42:57.431Z,100231.91
2023-08-10T06:45:36.280Z,100234.88
2023-08-10T06:48:05.164Z,100231.09
2023-08-10T06:50:35.047Z,100237.47
2023-08-10T06:53:04.180Z,100237.84
2023-08-10T06:55:32.572Z,100238.38
2023-08-10T06:58:03.697Z,100245.16
2023-08-10T07:00:34.560Z,100240.44
2023-08-10T07:03:03.397Z,100233.78
2023-08-10T07:05:31.911Z,100236.25
2023-08-10T07:08:01.781Z,100229.66
2023-08-10T07:10:30.720Z,100237.03
2023-08-10T07:12:59.203Z,100232.31
2023-08-10T07:15:27.797Z,100232.72
2023-08-10T07:17:56.540Z,100216.44
2023-08-10T07:20:25.011Z,100206.50
2023-08-10T07:22:54.479Z,100212.66
2023-08-10T07:25:24.251Z,100212.66
2023-08-10T07:27:52.701Z,100208.78
2023-08-10T07:30:21.436Z,100204.25
2023-08-10T07:32:50.038Z,100208.59
2023-08-10T07:35:20.097Z,100207.28
2023-08-10T07:37:50.228Z,100188.47
2023-08-10T07:40:19.063Z,100188.94
2023-08-10T07:42:48.958Z,100194.56
2023-08-10T07:45:17.580Z,100190.78
2023-08-10T07:47:46.230Z,100190.06
2023-08-10T07:50:15.462Z,100195.06
2023-08-10T07:52:43.924Z,100201.66
2023-08-10T07:55:14.415Z,100191.16
2023-08-10T07:57:43.050Z,100189.28
2023-08-10T08:00:14.836Z,100178.66
2023-08-10T08:02:43.674Z,100183.97
2023-08-10T08:05:12.385Z,100191.16
2023-08-10T08:07:40.809Z,100199.56
2023-08-10T08:10:09.681Z,100182.25
2023-08-10T08:12:38.577Z,100178.34
2023-08-10T08:15:08.120Z,100175.59
2023-08-10T08:18:09.794Z,100172.16
2023-08-10T08:20:39.630Z,100176.69
2023-08-10T08:23:08.229Z,100183.66
2023-08-10T08:25:38.674Z,100186.09
2023-08-10T08:28:09.186Z,100182.97
2023-08-10T08:30:37.869Z,100176.81
2023-08-10T08:33:07.007Z,100180.88
2023-08-10T08:35:36.446Z,100190.16
2023-08-10T08:38:07.611Z,100187.69
2023-08-10T08:40:37.104Z,100187.16
2023-08-10T08:43:07.081Z,100188.03
2023-08-10T08:45:37.364Z,100183.38
2023-08-10T08:48:09.114Z,100179.28
2023-08-10T08:50:39.333Z,100173.44
2023-08-10T08:53:12.025Z,100168.34
2023-08-10T08:55:40.974Z,100169.75
2023-08-10T08:58:09.975Z,100178.31
2023-08-10T09:00:40.966Z,100170.53
2023-08-10T09:03:09.583Z,100172.69
2023-08-10T09:05:38.138Z,100174.88
2023-08-10T09:08:08.044Z,100171.78
2023-08-10T09:10:38.125Z,100167.53
2023-08-10T09:13:13.998Z,100168.56
2023-08-10T09:15:42.714Z,100176.50
2023-08-10T09:18:11.231Z,100185.25
2023-08-10T09:20:39.963Z,100188.63
2023-08-10T09:23:09.099Z,100178.78
2023-08-10T09:25:44.033Z,100178.06
2023-08-10T09:28:14.767Z,100174.78
2023-08-10T09:30:43.812Z,100172.97
2023-08-10T09:33:12.312Z,100159.03
2023-08-10T09:35:40.813Z,100158.06
2023-08-10T09:38:09.316Z,100167.97
2023-08-10T09:40:39.232Z,100166.09
2023-08-10T09:43:12.109Z,100158.94
2023-08-10T09:45:43.898Z,100152.09
2023-08-10T09:48:13.905Z,100153.06
2023-08-10T09:50:47.482Z,100147.00
2023-08-10T09:53:16.884Z,100151.84
2023-08-10T09:55:46.862Z,100147.59
2023-08-10T09:58:16.532Z,100137.72
2023-08-10T10:00:46.960Z,100128.72
2023-08-10T10:03:15.760Z,100139.28
2023-08-10T10:05:44.945Z,100140.84
2023-08-10T10:08:14.155Z,100132.09
2023-08-10T10:10:45.199Z,100138.66
2023-08-10T10:13:17.871Z,100140.19
2023-08-10T10:15:46.627Z,100131.31
2023-08-10T10:18:15.855Z,100136.38
2023-08-10T10:20:46.675Z,100145.59
2023-08-10T10:23:17.328Z,100145.97
2023-08-10T10:25:58.648Z,100147.25
2023-08-10T10:28:30.812Z,100138.41
2023-08-10T10:31:09.271Z,100148.34
2023-08-10T10:33:40.012Z,100144.19
2023-08-10T10:36:22.152Z,100129.31
2023-08-10T10:38:57.105Z,100134.06
2023-08-10T10:41:33.259Z,100138.19
2023-08-10T10:44:05.730Z,100144.22
2023-08-10T10:46:38.757Z,100139.25
2023-08-10T10:49:09.520Z,100153.75
2023-08-10T10:52:05.704Z,100143.50
2023-08-10T10:54:37.652Z,100140.97
2023-08-10T10:57:07.878Z,100132.31
2023-08-10T10:59:37.754Z,100129.06
2023-08-10T11:02:06.671Z,100128.50
2023-08-10T11:04:35.352Z,100132.50
2023-08-10T11:07:03.925Z,100121.50
2023-08-10T11:09:32.397Z,100135.53
2023-08-10T11:12:04.308Z,100124.69
2023-08-10T11:14:34.567Z,100126.59
2023-08-10T11:17:06.346Z,100117.78
2023-08-10T11:19:36.179Z,100119.91
2023-08-10T11:22:05.112Z,100116.78
2023-08-10T11:24:33.613Z,100124.53
2023-08-10T11:27:02.273Z,100117.19
2023-08-10T11:29:30.916Z,100102.34
2023-08-10T11:32:00.550Z,100107.88
2023-08-10T11:34:30.921Z,100107.00
2023-08-10T11:36:59.574Z,100103.19
2023-08-10T11:39:28.134Z,100099.38
2023-08-10T11:41:57.781Z,100101.63
2023-08-10T11:44:27.892Z,100097.66
2023-08-10T11:47:00.654Z,100086.91
2023-08-10T11:49:33.092Z,100094.53
2023-08-10T11:52:04.271Z,100083.22
2023-08-10T11:54:36.179Z,100086.91
2023-08-10T11:57:12.687Z,100085.78
2023-08-10T11:59:41.913Z,100082.13
2023-08-10T12:02:14.841Z,100086.94
2023-08-10T12:04:44.863Z,100083.22
2023-08-10T12:07:23.010Z,100087.72
2023-08-10T12:09:53.413Z,100078.00
2023-08-10T12:12:21.936Z,100084.22
2023-08-10T12:14:54.964Z,100080.72
2023-08-10T12:17:23.538Z,100072.34
2023-08-10T12:19:53.395Z,100056.75
2023-08-10T12:22:21.830Z,100066.56
2023-08-10T12:24:50.223Z,100059.34
2023-08-10T12:27:18.711Z,100057.03
2023-08-10T12:29:47.197Z,100052.09
2023-08-10T12:32:15.728Z,100053.56
2023-08-10T12:34:44.326Z,100063.88
2023-08-10T12:37:14.423Z,100061.44
2023-08-10T12:39:42.863Z,100053.81
2023-08-10T12:42:11.282Z,100056.66
2023-08-10T12:44:39.774Z,100056.00
2023-08-10T12:47:08.255Z,100055.31
2023-08-10T12:49:36.974Z,100052.56
2023-08-10T12:52:06.155Z,100057.22
2023-08-10T12:54:36.495Z,100045.59
2023-08-10T12:57:05.853Z,100044.91
2023-08-10T12:59:34.233Z,100045.22
2023-08-10T13:02:03.044Z,100058.47
2023-08-10T13:04:31.462Z,100056.38
2023-08-10T13:06:59.941Z,100048.28
2023-08-10T13:09:29.160Z,100051.97
2023-08-10T13:11:59.058Z,100060.22
2023-08-10T13:14:27.757Z,100047.41
2023-08-10T13:16:56.414Z,100051.50
2023-08-10T13:19:24.960Z,100049.66
2023-08-10T13:21:53.598Z,100047.25
2023-08-10T13:24:22.106Z,100047.59
2023-08-10T13:26:50.586Z,100042.06
2023-08-10T13:29:20.530Z,100045.63
2023-08-10T13:31:49.049Z,100050.00
2023-08-10T13:34:17.462Z,100036.59
2023-08-10T13:36:46.012Z,100034.34
2023-08-10T13:39:14.447Z,100030.97
2023-08-10T13:41:43.306Z,100030.38
2023-08-10T13:44:11.744Z,100029.22
2023-08-10T13:46:41.663Z,100028.47
2023-08-10T13:49:10.093Z,100023.53
2023-08-10T13:51:39.287Z,100028.88
2023-08-10T13:54:08.276Z,100010.44
2023-08-10T13:57:01.694Z,100019.44
2023-08-10T13:59:31.424Z,100012.06
2023-08-10T14:02:01.583Z,100026.19
2023-08-10T14:04:29.992Z,100027.56
2023-08-10T14:06:58.334Z,100013.25
2023-08-10T14:09:26.803Z,100020.13
2023-08-10T14:11:55.378Z,100024.38
2023-08-10T14:14:23.915Z,100022.25
2023-08-10T14:16:52.325Z,100025.00
2023-08-10T14:19:23.376Z,100019.53
2023-08-10T14:21:52.238Z,100019.84
2023-08-10T14:24:20.837Z,100025.19
2023-08-10T14:26:49.304Z,100023.47
2023-08-10T14:29:17.725Z,100019.22
2023-08-10T14:31:46.368Z,100021.94
2023-08-10T14:34:15.014Z,100017.56
2023-08-10T14:36:44.795Z,100022.56
2023-08-10T14:39:14.177Z,100005.16
2023-08-10T14:41:42.560Z,100008.91
2023-08-10T14:44:11.091Z,100005.91
2023-08-10T14:46:39.501Z,100009.13
2023-08-10T14:49:08.341Z,100003.47
2023-08-10T14:51:37.001Z,99997.81
2023-08-10T14:54:07.961Z,100001.84
2023-08-10T14:56:37.675Z,99980.84
2023-08-10T14:59:07.142Z,99983.72
2023-08-10T15:01:35.546Z,99975.78
2023-08-10T15:04:08.649Z,99978.66
2023-08-10T15:06:37.221Z,99968.38
2023-08-10T15:09:07.428Z,99979.50
2023-08-10T15:11:36.101Z,99980.41
2023-08-10T15:14:07.024Z,99970.81
2023-08-10T15:16:37.208Z,99969.06
2023-08-10T15:19:05.989Z,99976.31
2023-08-10T15:21:34.586Z,99981.56
2023-08-10T15:24:03.160Z,99976.09
2023-08-10T15:26:33.081Z,99979.22
2023-08-10T15:29:01.751Z,99982.22
2023-08-10T15:31:30.120Z,99985.19
2023-08-10T15:33:59.613Z,99983.47
2023-08-10T15:36:28.117Z,99981.94
2023-08-10T15:38:56.597Z,99982.66
2023-08-10T15:41:25.035Z,99987.34
2023-08-10T15:43:55.200Z,99992.72
2023-08-10T15:46:24.857Z,99990.72
2023-08-10T15:48:53.587Z,99989.88
2023-08-10T15:51:22.131Z,99993.41
2023-08-10T15:53:50.588Z,99984.09
2023-08-10T15:56:19.136Z,99986.19
2023-08-10T15:58:47.816Z,99983.63
2023-08-10T16:01:18.104Z,99982.22
2023-08-10T16:03:46.720Z,99992.97
2023-08-10T16:06:15.553Z,99982.94
2023-08-10T16:08:44.251Z,99992.28
2023-08-10T16:11:12.852Z,99984.34
2023-08-10T16:13:41.379Z,99985.63
2023-08-10T16:16:09.868Z,99980.22
2023-08-10T16:18:40.348Z,99980.94
2023-08-10T16:21:08.856Z,99966.59
2023-08-10T16:23:39.880Z,99962.25
2023-08-10T16:26:08.762Z,99969.00
2023-08-10T16:28:37.232Z,99966.53
2023-08-10T16:31:07.077Z,99965.50
2023-08-10T16:33:36.212Z,99969.88
2023-08-10T16:36:06.780Z,99964.94
2023-08-10T16:38:35.909Z,99966.09
2023-08-10T16:41:04.549Z,99964.44
2023-08-10T16:43:33.771Z,99974.31
2023-08-10T16:46:02.403Z,99981.41
2023-08-10T16:48:31.971Z,99990.03
2023-08-10T16:51:00.719Z,99978.00
2023-08-10T16:53:30.745Z,99971.25
2023-08-10T16:55:59.319Z,99979.28
2023-08-10T16:58:27.765Z,99967.84
2023-08-10T17:00:56.358Z,99978.44
2023-08-10T17:03:24.916Z,99976.75
2023-08-10T17:05:53.773Z,99978.56
2023-08-10T17:08:22.090Z,99977.13
2023-08-10T17:10:52.021Z,99978.41
2023-08-10T17:13:20.651Z,99978.41
2023-08-10T17:15:49.795Z,99982.19
2023-08-10T17:18:18.374Z,99977.81
2023-08-10T17:20:47.218Z,99977.97
2023-08-10T17:23:15.717Z,99973.00
2023-08-10T17:25:45.197Z,99972.44
2023-08-10T17:28:15.129Z,99979.66
2023-08-10T17:30:44.490Z,99970.63
2023-08-10T17:33:13.059Z,99971.47
2023-08-10T17:35:41.547Z,99965.78
2023-08-10T17:38:09.965Z,99965.22
2023-08-10T17:40:38.803Z,99969.19
2023-08-10T17:43:07.204Z,99968.19
2023-08-10T17:45:37.113Z,99978.47
2023-08-10T17:48:06.199Z,99978.78
2023-08-10T17:50:34.904Z,99977.94
2023-08-10T17:53:03.476Z,99981.00
2023-08-10T17:55:32.548Z,99977.03
2023-08-10T17:58:01.145Z,99970.81
2023-08-10T18:00:29.538Z,99970.22
2023-08-10T18:02:59.477Z,99968.22
2023-08-10T18:05:28.135Z,99969.31
2023-08-10T18:07:56.545Z,99965.22
2023-08-10T18:10:25.087Z,99958.53
2023-08-10T18:12:53.443Z,99959.38
2023-08-10T18:15:22.220Z,99953.03
2023-08-10T18:17:50.687Z,99957.44
2023-08-10T18:20:20.697Z,99947.56
2023-08-10T18:22:49.152Z,99944.75
2023-08-10T18:25:17.604Z,99947.66
2023-08-10T18:27:46.052Z,99958.53
2023-08-10T18:30:15.732Z,99966.44
2023-08-10T18:32:44.601Z,99968.91
2023-08-10T18:35:13.478Z,99962.34
2023-08-10T18:37:43.495Z,99962.16
2023-08-10T18:40:13.374Z,99955.91
2023-08-10T18:42:41.896Z,99963.94
2023-08-10T18:45:11.117Z,99969.97
2023-08-10T18:47:43.844Z,99967.41
2023-08-10T18:50:14.266Z,99976.13
2023-08-10T18:52:44.232Z,99970.44
2023-08-10T18:55:13.007Z,99966.13
2023-08-10T18:57:41.812Z,99969.75
2023-08-10T19:00:11.735Z,99970.13
2023-08-10T19:02:40.295Z,99971.38
2023-08-10T19:05:10.325Z,99970.44
2023-08-10T19:07:39.807Z,99974.88
2023-08-10T19:10:11.101Z,99977.56
2023-08-10T19:12:39.977Z,99977.28
2023-08-10T19:15:09.499Z,99974.69
2023-08-10T19:17:38.040Z,99972.53
2023-08-10T19:20:07.932Z,99972.06
2023-08-10T19:22:36.423Z,99982.81
2023-08-10T19:25:05.990Z,99986.22
2023-08-10T19:27:35.876Z,99978.69
2023-08-10T19:30:06.873Z,99980.38
2023-08-10T19:32:35.462Z,99981.84
2023-08-10T19:35:05.822Z,99979.91
2023-08-10T19:37:34.370Z,99981.13
2023-08-10T19:40:03.133Z,99990.84
2023-08-10T19:42:32.078Z,99996.06
2023-08-10T19:45:02.004Z,99989.84
2023-08-10T19:47:30.468Z,99989.59
2023-08-10T19:49:59.785Z,99996.66
2023-08-10T19:52:28.275Z,99996.66
2023-08-10T19:54:56.655Z,100004.16
2023-08-10T19:57:25.177Z,100009.50
2023-08-10T19:59:53.504Z,100020.53
2023-08-10T20:02:23.510Z,100018.84
2023-08-10T20:04:53.713Z,100015.78
2023-08-10T20:07:22.219Z,100014.16
2023-08-10T20:09:50.838Z,100019.88
2023-08-10T20:12:19.283Z,100011.13
2023-08-10T20:14:47.798Z,100017.63
2023-08-10T20:17:17.310Z,100021.22
2023-08-10T20:19:47.674Z,100015.63
2023-08-10T20:22:16.589Z,100014.38
2023-08-10T20:24:45.122Z,100006.38
2023-08-10T20:27:14.733Z,99998.38
2023-08-10T20:29:43.263Z,99999.53
2023-08-10T20:32:11.806Z,99999.03
2023-08-10T20:34:40.411Z,100007.41
2023-08-10T20:37:10.443Z,100003.97
2023-08-10T20:39:39.104Z,100003.75
2023-08-10T20:42:10.929Z,99997.34
2023-08-10T20:44:41.284Z,100007.03
2023-08-10T20:47:09.761Z,100004.50
2023-08-10T20:49:38.263Z,100012.81
2023-08-10T20:52:08.209Z,100019.84
2023-08-10T20:54:39.045Z,100008.69
2023-08-10T20:57:07.791Z,100022.38
2023-08-10T20:59:36.454Z,100036.56
2023-08-10T21:02:05.187Z,100043.09
2023-08-10T21:04:33.743Z,100044.38
2023-08-10T21:07:02.373Z,100039.25
2023-08-10T21:09:30.852Z,100038.66
2023-08-10T21:12:01.053Z,100033.31
2023-08-10T21:14:29.583Z,100037.81
2023-08-10T21:16:57.959Z,100018.81
2023-08-10T21:19:26.543Z,100022.03
2023-08-10T21:21:55.315Z,100016.53
2023-08-10T21:24:23.896Z,100034.84
2023-08-10T21:26:52.764Z,100030.44
2023-08-10T21:29:22.677Z,100031.66
2023-08-10T21:31:51.118Z,100027.84
2023-08-10T21:34:19.567Z,100024.53
2023-08-10T21:36:48.107Z,100018.44
2023-08-10T21:39:16.491Z,100028.47
2023-08-10T21:41:44.972Z,100040.19
2023-08-10T21:44:13.349Z,100031.84
2023-08-10T21:46:43.280Z,100016.53
2023-08-10T21:49:11.834Z,100021.00
2023-08-10T21:51:40.256Z,100016.84
2023-08-10T21:54:08.856Z,100007.38
2023-08-10T21:56:37.762Z,100015.69
2023-08-10T21:59:06.314Z,100004.91
2023-08-10T22:01:34.698Z,100011.94
2023-08-10T22:04:04.966Z,100017.25
2023-08-10T22:06:33.458Z,100018.22
2023-08-10T22:09:01.887Z,100026.66
2023-08-10T22:11:30.451Z,100023.56
2023-08-10T22:13:58.773Z,100009.50
2023-08-10T22:16:27.321Z,100019.31
2023-08-10T22:18:56.236Z,100010.88
2023-08-10T22:21:26.478Z,100014.63
2023-08-10T22:23:55.037Z,100014.81
2023-08-10T22:26:23.528Z,100008.22
2023-08-10T22:28:52.057Z,100009.59
2023-08-10T22:31:20.561Z,100019.28
2023-08-10T22:33:48.998Z,100023.13
2023-08-10T22:36:18.188Z,100018.75
2023-08-10T22:38:48.003Z,100018.00
2023-08-10T22:41:16.637Z,100018.22
2023-08-10T22:43:44.981Z,100026.41
2023-08-10T22:46:13.437Z,100011.63
2023-08-10T22:48:41.869Z,100016.94
2023-08-10T22:51:12.379Z,100020.53
2023-08-10T22:53:40.835Z,100021.81
2023-08-10T22:56:11.750Z,100003.28
2023-08-10T22:58:40.253Z,100012.44
2023-08-10T23:01:08.587Z,100015.47
2023-08-10T23:03:37.816Z,100017.47
2023-08-10T23:06:06.856Z,100018.72
2023-08-10T23:08:35.765Z,100011.06
2023-08-10T23:11:05.140Z,100006.59
2023-08-10T23:13:35.218Z,100007.03
2023-08-10T23:16:03.745Z,100006.09
2023-08-10T23:18:32.717Z,100001.84
2023-08-10T23:21:01.737Z,99992.88
2023-08-10T23:23:30.933Z,99991.94
2023-08-10T23:25:59.493Z,99998.00
2023-08-10T23:28:27.858Z,99991.34
2023-08-10T23:30:57.767Z,99989.22
2023-08-10T23:33:26.252Z,99979.41
2023-08-10T23:35:54.743Z,99984.84
2023-08-10T23:38:25.364Z,99979.31
2023-08-10T23:40:54.074Z,99978.34
2023-08-10T23:43:22.535Z,99973.03
2023-08-10T23:45:51.301Z,99970.28
2023-08-10T23:48:21.105Z,99964.09
2023-08-10T23:50:50.465Z,99965.91
2023-08-10T23:53:18.853Z,99962.38
2023-08-10T23:55:47.560Z,99951.97
2023-08-10T23:58:20.572Z,99954.91
